High Level Airport
CYOJ : now visible

Airfield :











YOU CAN JOIN US ON...

 
LOGIN :

Register | Disclaimer

   EN    FR    IT 

 









Legend :    VFR   Marginal VFR   IFR   Intensive IFR   Very Intensive IFR
Visi :
Ceiling :
>= 8 km
>= 3000ft
5 to 8 km
1000 to 3000 ft
1500m to 5 km
500 to 1000 ft
800 to 1500m
200 to 500 ft
< 800m
< 200 ft
Symbols :   Thunderstorms  Fog  Heavy snow  Heavy precipitations  Wind > 20 kt






- Airport Elevation : 1110 ft
- IATA code : YOJ


CYOJ - High Level

CURRENT METAR :
  • 261700Z 00000KT 15SM BKN150 BKN250 M09/M15 A2992 RMK AS6CC1 WND ESTD SLP162

EXPIRED METARs :
  • 261600Z 00000KT 15SM BKN150 BKN250 M08/M11 A2995 RMK AS5CC2 WND ESTD SLP168
  • 261500Z 00000KT 15SM FEW100 SCT180 BKN260 M09/M11 A2996 RMK AC1AS3CC2 AC TR WND ESTD SLP174

TAF AMD TAF CYOJ
Valid from the 26 at 14:00 until the 27 at 01:00 UTC


261408Z 2614/2701 VRB03KT P6SM SCT100 BKN180
FM261800 13005KT P6SM SCT060 OVC110
TEMPO 2619/2621 P6SM -SN OVC060
FM262100 13010KT 6SM -SN OVC060
TEMPO 2621/2701 1SM -SHSN SCT008 OVC020 RMK NXT FCST BY 261900Z
CZEG FIR / North America



MET'MAP, your aeronautical weather chart ! - Copyright ORBIFLY December 2007 - Disclaimer

ORBIFLY MET'MAP TEAM :

Programming & Development : Alexandra Zaïnal
Concept & original design : Baudouin d'Aumeries
Assistance for programming : Marc-Olivier Méhu
Technical & hardware support : Manuel Goepfert

Contact : metmap@orbifly.com




SOURCES & CREDITS :

   NOAA       Earth
Advisory